createdAt,value
2017-09-29T00:01:30.085Z,17.20
2017-09-29T00:03:56.213Z,17.20
2017-09-29T00:06:22.397Z,17.10
2017-09-29T00:08:48.493Z,17.20
2017-09-29T00:11:14.606Z,17.20
2017-09-29T00:13:40.762Z,17.40
2017-09-29T00:16:06.901Z,17.20
2017-09-29T00:18:33.034Z,17.60
2017-09-29T00:20:59.174Z,17.20
2017-09-29T00:23:25.282Z,17.40
2017-09-29T00:25:51.417Z,17.20
2017-09-29T00:28:17.546Z,17.30
2017-09-29T00:30:43.826Z,17.30
2017-09-29T00:33:10.136Z,17.40
2017-09-29T00:35:37.167Z,17.30
2017-09-29T00:38:03.277Z,17.30
2017-09-29T00:40:30.353Z,17.30
2017-09-29T00:42:56.669Z,17.30
2017-09-29T00:45:22.804Z,17.40
2017-09-29T00:47:49.106Z,17.40
2017-09-29T00:50:15.420Z,17.30
2017-09-29T00:52:42.269Z,17.20
2017-09-29T00:55:08.420Z,17.20
2017-09-29T00:57:34.713Z,17.20
2017-09-29T01:00:01.844Z,17.30
2017-09-29T01:02:28.886Z,17.20
2017-09-29T01:04:55.063Z,17.20
2017-09-29T01:07:21.376Z,17.20
2017-09-29T01:09:48.512Z,17.20
2017-09-29T01:12:14.825Z,17.20
2017-09-29T01:14:41.150Z,17.20
2017-09-29T01:17:08.255Z,17.20
2017-09-29T01:19:34.593Z,17.20
2017-09-29T01:22:00.902Z,17.20
2017-09-29T01:24:27.232Z,17.20
2017-09-29T01:26:53.529Z,17.20
2017-09-29T01:29:19.834Z,17.20
2017-09-29T01:31:46.177Z,17.30
2017-09-29T01:34:13.385Z,17.20
2017-09-29T01:36:39.721Z,17.10
2017-09-29T01:39:07.503Z,17.50
2017-09-29T01:41:34.552Z,17.20
2017-09-29T01:44:00.678Z,17.20
2017-09-29T01:46:26.981Z,17.20
2017-09-29T01:48:53.293Z,17.60
2017-09-29T01:51:19.619Z,17.40
2017-09-29T01:53:45.978Z,17.20
2017-09-29T01:56:12.338Z,17.10
2017-09-29T01:58:39.393Z,17.10
2017-09-29T02:01:05.718Z,17.20
2017-09-29T02:03:32.046Z,17.10
2017-09-29T02:05:58.341Z,17.10
2017-09-29T02:08:24.639Z,17.10
2017-09-29T02:10:50.982Z,17.10
2017-09-29T02:13:17.302Z,17.10
2017-09-29T02:15:43.593Z,17.20
2017-09-29T02:18:09.906Z,17.50
2017-09-29T02:20:36.210Z,17.20
2017-09-29T02:23:02.525Z,17.20
2017-09-29T02:25:28.825Z,17.20
2017-09-29T02:27:55.869Z,17.20
2017-09-29T02:30:22.224Z,17.20
2017-09-29T02:32:49.352Z,17.20
2017-09-29T02:35:15.764Z,17.20
2017-09-29T02:37:42.077Z,16.80
2017-09-29T02:40:08.382Z,17.10
2017-09-29T02:42:34.682Z,17.10
2017-09-29T02:45:00.988Z,17.30
2017-09-29T02:47:27.327Z,17.10
2017-09-29T02:49:53.645Z,17.10
2017-09-29T02:52:19.945Z,17.10
2017-09-29T02:54:46.296Z,17.10
2017-09-29T02:57:16.091Z,16.90
2017-09-29T02:59:45.911Z,17.10
2017-09-29T03:02:13.826Z,17.10
2017-09-29T03:04:41.017Z,17.10
2017-09-29T03:07:07.143Z,17.20
2017-09-29T03:09:35.354Z,17.20
2017-09-29T03:12:01.661Z,17.50
2017-09-29T03:14:27.975Z,17.10
2017-09-29T03:16:54.373Z,17.10
2017-09-29T03:19:21.941Z,17.10
2017-09-29T03:21:48.284Z,17.10
2017-09-29T03:24:14.591Z,16.80
2017-09-29T03:26:40.941Z,17.50
2017-09-29T03:29:07.826Z,17.20
2017-09-29T03:31:34.881Z,17.20
2017-09-29T03:34:03.843Z,17.30
2017-09-29T03:36:30.153Z,17.20
2017-09-29T03:38:56.462Z,17.20
2017-09-29T03:41:22.781Z,17.30
2017-09-29T03:43:49.837Z,17.00
2017-09-29T03:46:19.520Z,17.00
2017-09-29T03:48:45.862Z,17.10
2017-09-29T03:51:13.269Z,17.10
2017-09-29T03:53:41.527Z,17.10
2017-09-29T03:56:09.211Z,17.00
2017-09-29T03:58:37.661Z,16.90
2017-09-29T04:01:04.749Z,17.00
2017-09-29T04:03:31.082Z,17.00
2017-09-29T04:05:59.954Z,17.00
2017-09-29T04:08:27.034Z,16.90
2017-09-29T04:10:53.363Z,17.00
2017-09-29T04:13:19.681Z,16.90
2017-09-29T04:15:45.987Z,17.00
2017-09-29T04:18:13.071Z,17.10
2017-09-29T04:20:39.947Z,17.10
2017-09-29T04:23:06.824Z,17.00
2017-09-29T04:25:32.929Z,17.60
2017-09-29T04:27:59.052Z,17.00
2017-09-29T04:30:25.173Z,16.90
2017-09-29T04:32:51.261Z,16.90
2017-09-29T04:35:18.113Z,16.90
2017-09-29T04:37:44.964Z,16.90
2017-09-29T04:40:11.115Z,17.10
2017-09-29T04:42:37.242Z,16.90
2017-09-29T04:45:03.385Z,16.90
2017-09-29T04:47:29.572Z,17.00
2017-09-29T04:49:55.690Z,17.00
2017-09-29T04:52:21.801Z,17.00
2017-09-29T04:54:48.642Z,17.00
2017-09-29T04:57:14.828Z,17.00
2017-09-29T04:59:40.931Z,17.00
2017-09-29T05:02:07.045Z,17.00
2017-09-29T05:04:33.352Z,17.00
2017-09-29T05:07:05.285Z,17.00
2017-09-29T05:09:32.177Z,17.00
2017-09-29T05:11:58.329Z,17.00
2017-09-29T05:14:24.457Z,17.00
2017-09-29T05:16:50.601Z,17.10
2017-09-29T05:19:16.873Z,17.10
2017-09-29T05:21:43.058Z,17.10
2017-09-29T05:24:09.206Z,17.10
2017-09-29T05:26:36.117Z,17.00
2017-09-29T05:29:02.254Z,17.00
2017-09-29T05:31:28.382Z,17.00
2017-09-29T05:33:54.502Z,17.00
2017-09-29T05:36:20.603Z,17.00
2017-09-29T05:38:46.761Z,17.60
2017-09-29T05:41:12.897Z,17.00
2017-09-29T05:43:39.033Z,17.00
2017-09-29T05:46:05.163Z,17.00
2017-09-29T05:48:31.283Z,17.00
2017-09-29T05:50:57.458Z,17.00
2017-09-29T05:53:23.563Z,17.00
2017-09-29T05:55:50.050Z,17.20
2017-09-29T05:58:16.157Z,17.00
2017-09-29T06:00:42.293Z,17.00
2017-09-29T06:03:08.408Z,16.90
2017-09-29T06:05:34.545Z,17.00
2017-09-29T06:08:00.658Z,16.70
2017-09-29T06:10:27.505Z,16.90
2017-09-29T06:12:53.626Z,16.90
2017-09-29T06:15:22.522Z,16.90
2017-09-29T06:17:49.364Z,17.00
2017-09-29T06:20:16.789Z,17.10
2017-09-29T06:22:42.901Z,17.00
2017-09-29T06:25:09.772Z,17.00
2017-09-29T06:27:35.933Z,17.00
2017-09-29T06:30:02.054Z,17.00
2017-09-29T06:32:29.509Z,17.00
2017-09-29T06:34:55.777Z,17.00
2017-09-29T06:37:21.887Z,17.00
2017-09-29T06:39:48.015Z,17.00
2017-09-29T06:42:15.057Z,17.00
2017-09-29T06:44:43.196Z,16.70
2017-09-29T06:47:10.046Z,16.90
2017-09-29T06:49:36.957Z,16.90
2017-09-29T06:52:03.077Z,17.10
2017-09-29T06:54:29.995Z,16.90
2017-09-29T06:56:56.174Z,16.90
2017-09-29T06:59:22.368Z,17.00
2017-09-29T07:01:49.081Z,17.00
2017-09-29T07:04:15.365Z,17.10
2017-09-29T07:06:42.257Z,17.10
2017-09-29T07:09:08.419Z,17.00
2017-09-29T07:11:34.640Z,17.10
2017-09-29T07:14:00.830Z,17.20
2017-09-29T07:16:26.952Z,17.20
2017-09-29T07:18:54.005Z,17.20
2017-09-29T07:21:20.150Z,17.10
2017-09-29T07:26:58.580Z,17.30
2017-09-29T07:29:27.242Z,17.30
2017-09-29T07:31:54.314Z,17.30
2017-09-29T07:34:20.615Z,17.30
2017-09-29T07:36:46.923Z,17.30
2017-09-29T07:39:13.072Z,17.30
2017-09-29T07:41:39.276Z,17.30
2017-09-29T07:44:05.521Z,17.50
2017-09-29T07:46:31.809Z,17.20
2017-09-29T07:48:58.018Z,17.30
2017-09-29T07:51:24.191Z,17.30
2017-09-29T07:53:50.326Z,17.40
2017-09-29T07:56:17.839Z,17.70
2017-09-29T07:58:44.048Z,17.50
2017-09-29T08:01:10.380Z,17.70
2017-09-29T08:03:36.572Z,17.40
2017-09-29T08:06:02.730Z,17.50
2017-09-29T08:08:29.004Z,17.40
2017-09-29T08:10:55.906Z,17.60
2017-09-29T08:13:24.064Z,17.70
2017-09-29T08:15:50.252Z,17.60
2017-09-29T08:18:16.465Z,17.60
2017-09-29T08:20:42.685Z,17.60
2017-09-29T08:23:09.595Z,17.60
2017-09-29T08:25:37.372Z,17.70
2017-09-29T08:28:10.111Z,17.50
2017-09-29T08:30:36.361Z,17.80
2017-09-29T08:33:02.548Z,17.70
2017-09-29T08:35:28.746Z,17.90
2017-09-29T08:37:55.648Z,18.30
2017-09-29T08:40:21.754Z,18.10
2017-09-29T08:42:48.641Z,18.20
2017-09-29T08:45:15.597Z,18.20
2017-09-29T08:47:43.446Z,18.20
2017-09-29T08:50:10.350Z,18.20
2017-09-29T08:52:37.206Z,18.30
2017-09-29T08:55:04.074Z,18.30
2017-09-29T08:57:30.206Z,18.30
2017-09-29T08:59:57.057Z,18.50
2017-09-29T09:02:23.898Z,18.60
2017-09-29T09:04:54.718Z,18.60
2017-09-29T09:07:20.813Z,18.70
2017-09-29T09:09:47.679Z,18.60
2017-09-29T09:12:13.793Z,18.50
2017-09-29T09:14:39.903Z,18.60
2017-09-29T09:17:06.039Z,18.70
2017-09-29T09:19:32.190Z,18.90
2017-09-29T09:21:58.311Z,18.80
2017-09-29T09:24:24.424Z,19.00
2017-09-29T09:26:50.531Z,18.90
2017-09-29T09:29:16.638Z,19.00
2017-09-29T09:31:42.749Z,18.70
2017-09-29T09:34:09.576Z,18.60
2017-09-29T09:36:35.712Z,18.60
2017-09-29T09:39:02.590Z,18.60
2017-09-29T09:41:28.698Z,18.60
2017-09-29T09:43:54.814Z,18.50
2017-09-29T09:46:21.657Z,18.60
2017-09-29T09:48:48.517Z,18.60
2017-09-29T09:51:14.610Z,18.60
2017-09-29T09:53:41.453Z,18.70
2017-09-29T09:56:07.566Z,18.90
2017-09-29T09:58:34.432Z,18.90
2017-09-29T10:01:00.544Z,18.90
2017-09-29T10:03:27.396Z,19.40
2017-09-29T10:05:53.577Z,19.40
2017-09-29T10:08:19.712Z,19.40
2017-09-29T10:10:45.833Z,19.60
2017-09-29T10:13:11.941Z,19.90
2017-09-29T10:15:38.045Z,19.60
2017-09-29T10:18:04.151Z,19.80
2017-09-29T10:20:30.249Z,19.70
2017-09-29T10:22:56.354Z,19.80
2017-09-29T10:25:22.445Z,20.10
2017-09-29T10:27:48.544Z,19.90
2017-09-29T10:30:14.663Z,20.00
2017-09-29T10:32:40.804Z,20.30
2017-09-29T10:35:06.897Z,20.50
2017-09-29T10:37:33.002Z,20.20
2017-09-29T10:39:59.093Z,20.30
2017-09-29T10:42:25.191Z,20.20
2017-09-29T10:44:51.293Z,20.30
2017-09-29T10:47:17.402Z,20.30
2017-09-29T10:49:43.521Z,20.40
2017-09-29T10:52:09.647Z,20.40
2017-09-29T10:54:36.504Z,20.30
2017-09-29T10:57:02.617Z,20.50
2017-09-29T10:59:28.750Z,20.60
2017-09-29T11:01:55.593Z,20.40
2017-09-29T11:04:21.703Z,20.40
2017-09-29T11:06:48.566Z,20.40
2017-09-29T11:09:14.669Z,20.40
2017-09-29T11:11:41.524Z,20.50
2017-09-29T11:14:08.375Z,20.50
2017-09-29T11:16:34.481Z,20.50
2017-09-29T11:19:00.591Z,20.50
2017-09-29T11:21:30.202Z,20.80
2017-09-29T11:23:57.047Z,21.00
2017-09-29T11:26:23.897Z,21.20
2017-09-29T11:28:49.996Z,21.20
2017-09-29T11:31:16.180Z,21.10
2017-09-29T11:33:42.292Z,21.40
2017-09-29T11:36:08.393Z,21.30
2017-09-29T11:38:34.517Z,21.40
2017-09-29T11:41:00.621Z,21.70
2017-09-29T11:43:33.742Z,21.80
2017-09-29T11:45:59.842Z,21.80
2017-09-29T11:48:25.932Z,22.10
2017-09-29T11:50:52.785Z,22.30
2017-09-29T11:53:18.902Z,22.40
2017-09-29T11:55:45.739Z,22.30
2017-09-29T11:58:12.581Z,22.40
2017-09-29T12:00:39.460Z,22.20
2017-09-29T12:03:05.574Z,22.20
2017-09-29T12:05:32.461Z,22.20
2017-09-29T12:07:58.600Z,22.10
2017-09-29T12:10:24.697Z,22.20
2017-09-29T12:12:50.884Z,22.30
2017-09-29T12:15:16.981Z,21.90
2017-09-29T12:17:43.081Z,21.80
2017-09-29T12:20:09.198Z,21.80
2017-09-29T12:22:35.428Z,22.00
2017-09-29T12:25:01.564Z,21.90
2017-09-29T12:27:27.672Z,22.00
2017-09-29T12:29:53.834Z,21.80
2017-09-29T12:32:19.966Z,21.70
2017-09-29T12:34:46.120Z,21.70
2017-09-29T12:37:12.378Z,21.60
2017-09-29T12:39:38.489Z,21.60
2017-09-29T12:42:04.602Z,21.60
2017-09-29T12:44:30.690Z,21.70
2017-09-29T12:46:56.777Z,21.70
2017-09-29T12:49:22.869Z,21.90
2017-09-29T12:51:49.725Z,22.00
2017-09-29T12:54:16.589Z,21.90
2017-09-29T12:56:45.518Z,22.00
2017-09-29T12:59:10.444Z,22.10
2017-09-29T13:01:36.576Z,22.10
2017-09-29T13:04:02.686Z,22.20
2017-09-29T13:06:28.813Z,22.50
2017-09-29T13:08:55.729Z,22.40
2017-09-29T13:11:21.908Z,22.40
2017-09-29T13:13:48.765Z,22.20
2017-09-29T13:16:14.896Z,22.20
2017-09-29T13:18:41.748Z,22.20
2017-09-29T13:21:07.893Z,22.20
2017-09-29T13:23:33.988Z,22.30
2017-09-29T13:26:00.957Z,22.60
2017-09-29T13:28:27.049Z,22.60
2017-09-29T13:30:53.972Z,22.30
2017-09-29T13:33:21.059Z,22.20
2017-09-29T13:35:48.673Z,22.30
2017-09-29T13:38:17.167Z,22.40
2017-09-29T13:40:43.764Z,22.40
2017-09-29T13:43:09.875Z,22.10
2017-09-29T13:45:36.004Z,22.30
2017-09-29T13:48:02.120Z,22.30
2017-09-29T13:50:28.279Z,22.20
2017-09-29T13:52:54.428Z,22.50
2017-09-29T13:55:20.549Z,22.40
2017-09-29T13:57:46.690Z,22.70
2017-09-29T14:00:13.575Z,22.70
2017-09-29T14:02:40.420Z,22.80
2017-09-29T14:05:06.535Z,22.80
2017-09-29T14:07:32.611Z,22.50
2017-09-29T14:09:59.512Z,22.20
2017-09-29T14:12:25.638Z,21.90
2017-09-29T14:14:51.737Z,22.40
2017-09-29T14:17:17.881Z,22.80
2017-09-29T14:19:43.968Z,22.60
2017-09-29T14:22:10.049Z,22.40
2017-09-29T14:24:36.153Z,22.40
2017-09-29T14:27:02.349Z,22.40
2017-09-29T14:29:28.447Z,22.30
2017-09-29T14:31:55.389Z,22.20
2017-09-29T14:34:22.296Z,22.20
2017-09-29T14:36:48.405Z,22.20
2017-09-29T14:39:14.798Z,22.20
2017-09-29T14:41:40.936Z,22.10
2017-09-29T14:44:07.034Z,22.20
2017-09-29T14:46:33.888Z,22.00
2017-09-29T14:49:00.900Z,22.00
2017-09-29T14:51:26.988Z,22.00
2017-09-29T14:53:53.079Z,22.00
2017-09-29T14:56:19.157Z,22.00
2017-09-29T14:58:45.261Z,22.20
2017-09-29T15:01:12.138Z,22.00
2017-09-29T15:03:38.236Z,21.90
2017-09-29T15:06:05.765Z,22.00
2017-09-29T15:08:48.935Z,22.00
2017-09-29T15:11:37.481Z,22.10
2017-09-29T15:14:20.163Z,22.10
2017-09-29T15:16:51.941Z,22.10
2017-09-29T15:19:22.702Z,22.00
2017-09-29T15:21:49.022Z,21.90
2017-09-29T15:24:15.316Z,21.90
2017-09-29T15:26:41.631Z,21.80
2017-09-29T15:29:07.945Z,21.90
2017-09-29T15:31:35.065Z,21.90
2017-09-29T15:34:01.396Z,21.90
2017-09-29T15:36:27.722Z,21.90
2017-09-29T15:38:54.022Z,21.80
2017-09-29T15:41:21.056Z,21.90
2017-09-29T15:43:48.097Z,21.80
2017-09-29T15:46:14.385Z,21.80
2017-09-29T15:48:41.522Z,21.80
2017-09-29T15:51:08.557Z,21.70
2017-09-29T15:53:34.848Z,21.70
2017-09-29T15:56:01.171Z,21.70
2017-09-29T15:58:27.484Z,21.60
2017-09-29T16:00:53.789Z,21.60
2017-09-29T16:03:20.861Z,21.50
2017-09-29T16:05:47.182Z,21.50
2017-09-29T16:08:13.567Z,21.50
2017-09-29T16:10:39.910Z,21.50
2017-09-29T16:13:06.212Z,21.50
2017-09-29T16:15:32.505Z,21.50
2017-09-29T16:17:58.840Z,21.60
2017-09-29T16:20:25.214Z,21.40
2017-09-29T16:22:51.524Z,21.30
2017-09-29T16:25:18.154Z,21.40
2017-09-29T16:27:44.457Z,21.40
2017-09-29T16:30:10.748Z,21.40
2017-09-29T16:32:37.029Z,21.30
2017-09-29T16:35:03.349Z,21.50
2017-09-29T16:37:29.886Z,21.40
2017-09-29T16:39:56.180Z,21.40
2017-09-29T16:42:22.557Z,21.30
2017-09-29T16:44:49.073Z,21.20
2017-09-29T16:47:15.389Z,21.20
2017-09-29T16:49:41.679Z,21.20
2017-09-29T16:52:08.076Z,21.00
2017-09-29T16:54:35.098Z,21.00
2017-09-29T16:57:02.205Z,20.90
2017-09-29T16:59:28.798Z,20.80
2017-09-29T17:01:55.149Z,20.80
2017-09-29T17:04:21.486Z,20.80
2017-09-29T17:06:47.876Z,21.00
2017-09-29T17:09:14.213Z,20.70
2017-09-29T17:11:40.534Z,20.70
2017-09-29T17:14:06.828Z,20.70
2017-09-29T17:16:33.173Z,20.60
2017-09-29T17:19:00.229Z,20.40
2017-09-29T17:21:27.263Z,20.30
2017-09-29T17:23:53.636Z,20.50
2017-09-29T17:26:19.976Z,20.30
2017-09-29T17:28:46.261Z,20.30
2017-09-29T17:31:12.585Z,20.20
2017-09-29T17:33:38.904Z,20.20
2017-09-29T17:36:05.192Z,20.40
2017-09-29T17:38:31.515Z,20.10
2017-09-29T17:40:57.935Z,20.10
2017-09-29T17:43:24.232Z,20.00
2017-09-29T17:45:51.344Z,19.90
2017-09-29T17:48:17.652Z,19.90
2017-09-29T17:50:43.962Z,20.00
2017-09-29T17:53:10.989Z,19.80
2017-09-29T17:55:37.341Z,19.80
2017-09-29T17:58:04.457Z,19.70
2017-09-29T18:00:30.841Z,19.70
2017-09-29T18:02:57.170Z,19.70
2017-09-29T18:05:23.509Z,19.70
2017-09-29T18:07:49.800Z,19.60
2017-09-29T18:10:16.857Z,19.50
2017-09-29T18:12:43.133Z,19.50
2017-09-29T18:15:09.460Z,19.40
2017-09-29T18:17:35.787Z,19.40
2017-09-29T18:20:02.168Z,19.30
2017-09-29T18:22:29.261Z,19.30
2017-09-29T18:25:00.005Z,19.30
2017-09-29T18:27:28.449Z,19.20
2017-09-29T18:29:55.726Z,19.20
2017-09-29T18:32:23.617Z,19.30
2017-09-29T18:34:50.055Z,19.30
2017-09-29T18:37:18.767Z,19.20
2017-09-29T18:39:46.408Z,19.20
2017-09-29T18:42:13.616Z,19.40
2017-09-29T18:44:42.940Z,19.40
2017-09-29T18:47:11.525Z,19.40
2017-09-29T18:49:37.859Z,19.40
2017-09-29T18:52:04.161Z,19.60
2017-09-29T18:54:30.673Z,19.60
2017-09-29T18:56:57.084Z,19.50
2017-09-29T18:59:23.529Z,19.60
2017-09-29T19:01:51.845Z,19.60
2017-09-29T19:04:18.544Z,19.70
2017-09-29T19:06:45.617Z,19.70
2017-09-29T19:09:12.719Z,19.70
2017-09-29T19:11:39.086Z,19.60
2017-09-29T19:14:05.768Z,19.80
2017-09-29T19:16:32.260Z,19.70
2017-09-29T19:18:58.740Z,19.70
2017-09-29T19:21:25.143Z,19.70
2017-09-29T19:23:51.609Z,19.90
2017-09-29T19:26:18.220Z,19.80
2017-09-29T19:28:45.512Z,19.60
2017-09-29T19:31:12.789Z,19.70
2017-09-29T19:33:39.263Z,19.90
2017-09-29T19:36:07.032Z,19.60
2017-09-29T19:38:35.124Z,19.50
2017-09-29T19:41:05.211Z,19.60
2017-09-29T19:43:31.685Z,19.50
2017-09-29T19:45:58.111Z,19.70
2017-09-29T19:48:25.209Z,19.40
2017-09-29T19:50:51.712Z,19.30
2017-09-29T19:53:18.058Z,19.40
2017-09-29T19:55:44.560Z,19.40
2017-09-29T19:58:11.252Z,19.40
2017-09-29T20:00:37.629Z,19.50
2017-09-29T20:03:04.002Z,19.30
2017-09-29T20:05:31.775Z,19.30
2017-09-29T20:08:04.833Z,19.30
2017-09-29T20:10:31.403Z,19.10
2017-09-29T20:13:02.276Z,19.30
2017-09-29T20:15:28.458Z,19.20
2017-09-29T20:17:54.588Z,19.10
2017-09-29T20:20:20.786Z,19.20
2017-09-29T20:22:46.979Z,19.60
2017-09-29T20:25:13.357Z,19.20
2017-09-29T20:27:39.629Z,19.10
2017-09-29T20:30:05.831Z,19.10
2017-09-29T20:32:33.007Z,19.20
2017-09-29T20:35:00.140Z,19.20
2017-09-29T20:37:27.204Z,19.20
2017-09-29T20:39:53.398Z,18.90
2017-09-29T20:42:20.844Z,19.20
2017-09-29T20:44:47.062Z,19.10
2017-09-29T20:47:14.025Z,19.00
2017-09-29T20:49:40.313Z,19.00
2017-09-29T20:52:06.757Z,19.00
2017-09-29T20:54:34.988Z,19.00
2017-09-29T20:57:01.330Z,19.00
2017-09-29T20:59:27.659Z,19.00
2017-09-29T21:01:53.956Z,19.00
2017-09-29T21:04:21.018Z,18.90
2017-09-29T21:06:47.386Z,19.00
2017-09-29T21:09:24.633Z,19.00
2017-09-29T21:11:54.653Z,18.80
2017-09-29T21:14:22.664Z,19.00
2017-09-29T21:16:48.905Z,18.90
2017-09-29T21:19:15.832Z,19.00
2017-09-29T21:21:42.000Z,18.90
2017-09-29T21:24:08.196Z,18.90
2017-09-29T21:26:35.142Z,19.10
2017-09-29T21:29:01.345Z,19.10
2017-09-29T21:31:27.593Z,19.10
2017-09-29T21:33:53.866Z,19.10
2017-09-29T21:36:20.273Z,19.10
2017-09-29T21:38:46.492Z,19.10
2017-09-29T21:41:13.380Z,19.10
2017-09-29T21:43:39.764Z,19.10
2017-09-29T21:46:05.970Z,19.20
2017-09-29T21:48:32.470Z,19.20
2017-09-29T21:50:59.472Z,19.20
2017-09-29T21:53:25.800Z,19.50
2017-09-29T21:55:52.026Z,19.00
2017-09-29T21:58:19.070Z,19.20
2017-09-29T22:00:46.144Z,19.20
2017-09-29T22:03:12.514Z,19.20
2017-09-29T22:05:39.619Z,19.20
2017-09-29T22:08:05.999Z,19.10
2017-09-29T22:10:32.354Z,19.10
2017-09-29T22:12:58.799Z,19.20
2017-09-29T22:15:27.102Z,19.40
2017-09-29T22:17:54.909Z,19.20
2017-09-29T22:20:21.267Z,19.30
2017-09-29T22:22:48.271Z,19.30
2017-09-29T22:25:14.556Z,19.30
2017-09-29T22:27:40.727Z,19.20
2017-09-29T22:30:07.655Z,19.30
2017-09-29T22:35:20.613Z,19.20
2017-09-29T22:37:46.897Z,19.20
2017-09-29T22:40:13.147Z,19.20
2017-09-29T22:42:39.448Z,19.20
2017-09-29T22:45:05.660Z,19.20
2017-09-29T22:47:31.860Z,19.20
2017-09-29T22:49:59.347Z,19.10
2017-09-29T22:52:25.566Z,19.10
2017-09-29T22:54:51.727Z,19.30
2017-09-29T22:57:17.907Z,19.10
2017-09-29T22:59:44.092Z,19.50
2017-09-29T23:02:10.348Z,19.20
2017-09-29T23:04:36.643Z,19.40
2017-09-29T23:07:03.629Z,19.40
2017-09-29T23:09:29.861Z,19.60
2017-09-29T23:11:56.346Z,19.60
2017-09-29T23:14:22.521Z,19.40
2017-09-29T23:16:49.939Z,19.50
2017-09-29T23:19:16.199Z,19.50
2017-09-29T23:21:43.229Z,19.40
2017-09-29T23:24:10.699Z,19.20
2017-09-29T23:26:37.670Z,19.10
2017-09-29T23:29:03.887Z,19.40
2017-09-29T23:31:30.103Z,19.60
2017-09-29T23:33:56.228Z,19.30
2017-09-29T23:36:22.356Z,19.20
2017-09-29T23:38:48.535Z,19.30
2017-09-29T23:41:15.421Z,19.40
2017-09-29T23:43:41.702Z,19.40
2017-09-29T23:46:07.972Z,19.30
2017-09-29T23:48:35.245Z,19.30
2017-09-29T23:51:02.270Z,19.40
2017-09-29T23:53:28.466Z,19.60
2017-09-29T23:55:54.697Z,19.50
2017-09-29T23:58:21.651Z,19.40
